sensor_id;sensor_type;location;lat;lon;timestamp;P1;durP1;ratioP1;P2;durP2;ratioP2
32633;SDS011;19043;51.012;5.648;2023-05-07T00:02:04;7.75;;;6.50;;
32633;SDS011;19043;51.012;5.648;2023-05-07T00:04:29;9.63;;;7.53;;
32633;SDS011;19043;51.012;5.648;2023-05-07T00:07:00;7.40;;;6.35;;
32633;SDS011;19043;51.012;5.648;2023-05-07T00:09:26;9.18;;;6.40;;
32633;SDS011;19043;51.012;5.648;2023-05-07T00:11:51;7.67;;;6.33;;
32633;SDS011;19043;51.012;5.648;2023-05-07T00:14:16;9.75;;;6.60;;
32633;SDS011;19043;51.012;5.648;2023-05-07T00:16:41;14.48;;;7.13;;
32633;SDS011;19043;51.012;5.648;2023-05-07T00:19:07;16.13;;;6.85;;
32633;SDS011;19043;51.012;5.648;2023-05-07T00:21:32;10.50;;;7.40;;
32633;SDS011;19043;51.012;5.648;2023-05-07T00:23:57;8.93;;;6.97;;
32633;SDS011;19043;51.012;5.648;2023-05-07T00:26:22;7.28;;;6.15;;
32633;SDS011;19043;51.012;5.648;2023-05-07T00:28:48;9.13;;;6.60;;
32633;SDS011;19043;51.012;5.648;2023-05-07T00:31:13;8.07;;;6.32;;
32633;SDS011;19043;51.012;5.648;2023-05-07T00:33:38;7.50;;;6.00;;
32633;SDS011;19043;51.012;5.648;2023-05-07T00:36:04;9.75;;;5.90;;
32633;SDS011;19043;51.012;5.648;2023-05-07T00:38:29;15.48;;;6.38;;
32633;SDS011;19043;51.012;5.648;2023-05-07T00:40:54;6.82;;;5.68;;
32633;SDS011;19043;51.012;5.648;2023-05-07T00:43:20;8.95;;;5.82;;
32633;SDS011;19043;51.012;5.648;2023-05-07T00:45:45;7.43;;;5.75;;
32633;SDS011;19043;51.012;5.648;2023-05-07T00:48:11;8.27;;;6.18;;
32633;SDS011;19043;51.012;5.648;2023-05-07T00:50:36;8.82;;;5.88;;
32633;SDS011;19043;51.012;5.648;2023-05-07T00:53:01;12.63;;;5.80;;
32633;SDS011;19043;51.012;5.648;2023-05-07T00:55:27;6.88;;;5.78;;
32633;SDS011;19043;51.012;5.648;2023-05-07T00:57:53;7.22;;;5.85;;
32633;SDS011;19043;51.012;5.648;2023-05-07T01:00:18;8.32;;;5.57;;
32633;SDS011;19043;51.012;5.648;2023-05-07T01:02:44;7.75;;;5.75;;
32633;SDS011;19043;51.012;5.648;2023-05-07T01:05:12;9.15;;;5.63;;
32633;SDS011;19043;51.012;5.648;2023-05-07T01:07:39;10.25;;;6.43;;
32633;SDS011;19043;51.012;5.648;2023-05-07T01:10:05;6.95;;;5.03;;
32633;SDS011;19043;51.012;5.648;2023-05-07T01:12:31;5.53;;;4.75;;
32633;SDS011;19043;51.012;5.648;2023-05-07T01:14:57;7.28;;;5.72;;
32633;SDS011;19043;51.012;5.648;2023-05-07T01:17:22;7.63;;;5.70;;
32633;SDS011;19043;51.012;5.648;2023-05-07T01:19:47;22.88;;;6.35;;
32633;SDS011;19043;51.012;5.648;2023-05-07T01:22:13;9.27;;;6.22;;
32633;SDS011;19043;51.012;5.648;2023-05-07T01:24:41;9.57;;;6.10;;
32633;SDS011;19043;51.012;5.648;2023-05-07T01:27:06;7.45;;;5.82;;
32633;SDS011;19043;51.012;5.648;2023-05-07T01:29:31;7.15;;;5.55;;
32633;SDS011;19043;51.012;5.648;2023-05-07T01:31:57;7.22;;;5.90;;
32633;SDS011;19043;51.012;5.648;2023-05-07T01:34:23;9.38;;;6.65;;
32633;SDS011;19043;51.012;5.648;2023-05-07T01:36:49;9.10;;;6.82;;
32633;SDS011;19043;51.012;5.648;2023-05-07T01:39:15;8.90;;;5.88;;
32633;SDS011;19043;51.012;5.648;2023-05-07T01:41:41;9.82;;;7.00;;
32633;SDS011;19043;51.012;5.648;2023-05-07T01:44:07;9.18;;;6.38;;
32633;SDS011;19043;51.012;5.648;2023-05-07T01:46:33;13.10;;;8.60;;
32633;SDS011;19043;51.012;5.648;2023-05-07T01:48:59;10.85;;;8.98;;
32633;SDS011;19043;51.012;5.648;2023-05-07T01:51:24;14.55;;;8.88;;
32633;SDS011;19043;51.012;5.648;2023-05-07T01:53:51;13.15;;;8.40;;
32633;SDS011;19043;51.012;5.648;2023-05-07T01:56:17;11.73;;;8.57;;
32633;SDS011;19043;51.012;5.648;2023-05-07T01:58:44;10.40;;;8.70;;
32633;SDS011;19043;51.012;5.648;2023-05-07T02:01:09;11.73;;;7.55;;
32633;SDS011;19043;51.012;5.648;2023-05-07T02:03:34;8.65;;;7.75;;
32633;SDS011;19043;51.012;5.648;2023-05-07T02:05:59;10.20;;;8.25;;
32633;SDS011;19043;51.012;5.648;2023-05-07T02:08:25;11.80;;;7.90;;
32633;SDS011;19043;51.012;5.648;2023-05-07T02:10:50;10.20;;;8.25;;
32633;SDS011;19043;51.012;5.648;2023-05-07T02:13:16;10.32;;;8.52;;
32633;SDS011;19043;51.012;5.648;2023-05-07T02:15:41;10.98;;;7.85;;
32633;SDS011;19043;51.012;5.648;2023-05-07T02:18:08;13.18;;;8.75;;
32633;SDS011;19043;51.012;5.648;2023-05-07T02:20:34;9.38;;;8.00;;
32633;SDS011;19043;51.012;5.648;2023-05-07T02:22:59;8.93;;;8.02;;
32633;SDS011;19043;51.012;5.648;2023-05-07T02:25:25;11.70;;;9.00;;
32633;SDS011;19043;51.012;5.648;2023-05-07T02:27:50;11.93;;;8.45;;
32633;SDS011;19043;51.012;5.648;2023-05-07T02:30:15;11.35;;;8.32;;
32633;SDS011;19043;51.012;5.648;2023-05-07T02:32:41;11.25;;;8.60;;
32633;SDS011;19043;51.012;5.648;2023-05-07T02:35:06;10.68;;;8.82;;
32633;SDS011;19043;51.012;5.648;2023-05-07T02:37:31;13.30;;;9.10;;
32633;SDS011;19043;51.012;5.648;2023-05-07T02:39:57;10.10;;;8.27;;
32633;SDS011;19043;51.012;5.648;2023-05-07T02:42:22;11.80;;;8.95;;
32633;SDS011;19043;51.012;5.648;2023-05-07T02:44:47;12.30;;;8.18;;
32633;SDS011;19043;51.012;5.648;2023-05-07T02:47:13;16.13;;;8.63;;
32633;SDS011;19043;51.012;5.648;2023-05-07T02:49:38;12.45;;;8.63;;
32633;SDS011;19043;51.012;5.648;2023-05-07T02:52:04;11.45;;;8.63;;
32633;SDS011;19043;51.012;5.648;2023-05-07T02:54:29;12.50;;;8.45;;
32633;SDS011;19043;51.012;5.648;2023-05-07T02:56:54;11.13;;;8.75;;
32633;SDS011;19043;51.012;5.648;2023-05-07T02:59:20;9.13;;;8.20;;
32633;SDS011;19043;51.012;5.648;2023-05-07T03:01:45;12.60;;;9.60;;
32633;SDS011;19043;51.012;5.648;2023-05-07T03:04:10;18.38;;;8.88;;
32633;SDS011;19043;51.012;5.648;2023-05-07T03:06:36;10.88;;;8.95;;
32633;SDS011;19043;51.012;5.648;2023-05-07T03:09:01;12.25;;;8.20;;
32633;SDS011;19043;51.012;5.648;2023-05-07T03:11:26;10.13;;;8.68;;
32633;SDS011;19043;51.012;5.648;2023-05-07T03:13:52;9.20;;;8.10;;
32633;SDS011;19043;51.012;5.648;2023-05-07T03:16:17;11.25;;;8.95;;
32633;SDS011;19043;51.012;5.648;2023-05-07T03:18:42;13.03;;;8.30;;
32633;SDS011;19043;51.012;5.648;2023-05-07T03:21:07;16.13;;;9.45;;
32633;SDS011;19043;51.012;5.648;2023-05-07T03:23:33;10.93;;;9.07;;
32633;SDS011;19043;51.012;5.648;2023-05-07T03:25:58;9.93;;;8.73;;
32633;SDS011;19043;51.012;5.648;2023-05-07T03:28:23;14.80;;;9.15;;
32633;SDS011;19043;51.012;5.648;2023-05-07T03:30:48;12.07;;;8.95;;
32633;SDS011;19043;51.012;5.648;2023-05-07T03:33:14;12.90;;;8.10;;
32633;SDS011;19043;51.012;5.648;2023-05-07T03:35:39;11.43;;;8.68;;
32633;SDS011;19043;51.012;5.648;2023-05-07T03:38:04;10.40;;;8.33;;
32633;SDS011;19043;51.012;5.648;2023-05-07T03:40:29;9.43;;;8.38;;
32633;SDS011;19043;51.012;5.648;2023-05-07T03:42:55;11.32;;;8.73;;
32633;SDS011;19043;51.012;5.648;2023-05-07T03:45:20;11.73;;;9.90;;
32633;SDS011;19043;51.012;5.648;2023-05-07T03:47:45;12.20;;;8.85;;
32633;SDS011;19043;51.012;5.648;2023-05-07T03:50:10;10.88;;;8.35;;
32633;SDS011;19043;51.012;5.648;2023-05-07T03:52:36;10.30;;;8.25;;
32633;SDS011;19043;51.012;5.648;2023-05-07T03:55:01;10.75;;;8.32;;
32633;SDS011;19043;51.012;5.648;2023-05-07T03:57:26;8.75;;;7.30;;
32633;SDS011;19043;51.012;5.648;2023-05-07T03:59:51;10.23;;;7.63;;
32633;SDS011;19043;51.012;5.648;2023-05-07T04:02:17;11.30;;;7.75;;
32633;SDS011;19043;51.012;5.648;2023-05-07T04:04:42;13.23;;;8.18;;
32633;SDS011;19043;51.012;5.648;2023-05-07T04:07:07;10.13;;;8.75;;
32633;SDS011;19043;51.012;5.648;2023-05-07T04:09:32;12.45;;;9.18;;
32633;SDS011;19043;51.012;5.648;2023-05-07T04:11:58;14.63;;;8.18;;
32633;SDS011;19043;51.012;5.648;2023-05-07T04:14:23;13.48;;;8.80;;
32633;SDS011;19043;51.012;5.648;2023-05-07T04:16:48;10.85;;;9.00;;
32633;SDS011;19043;51.012;5.648;2023-05-07T04:19:13;11.23;;;8.32;;
32633;SDS011;19043;51.012;5.648;2023-05-07T04:21:39;10.73;;;7.78;;
32633;SDS011;19043;51.012;5.648;2023-05-07T04:24:05;11.27;;;8.82;;
32633;SDS011;19043;51.012;5.648;2023-05-07T04:26:30;10.25;;;8.18;;
32633;SDS011;19043;51.012;5.648;2023-05-07T04:28:56;12.88;;;8.27;;
32633;SDS011;19043;51.012;5.648;2023-05-07T04:31:24;12.68;;;8.95;;
32633;SDS011;19043;51.012;5.648;2023-05-07T04:33:49;12.05;;;9.80;;
32633;SDS011;19043;51.012;5.648;2023-05-07T04:36:15;14.27;;;9.38;;
32633;SDS011;19043;51.012;5.648;2023-05-07T04:38:41;12.57;;;9.73;;
32633;SDS011;19043;51.012;5.648;2023-05-07T04:41:06;12.07;;;9.07;;
32633;SDS011;19043;51.012;5.648;2023-05-07T04:43:32;10.02;;;8.25;;
32633;SDS011;19043;51.012;5.648;2023-05-07T04:45:57;16.48;;;10.30;;
32633;SDS011;19043;51.012;5.648;2023-05-07T04:48:22;12.85;;;8.73;;
32633;SDS011;19043;51.012;5.648;2023-05-07T04:50:48;11.35;;;8.32;;
32633;SDS011;19043;51.012;5.648;2023-05-07T04:53:13;13.63;;;9.80;;
32633;SDS011;19043;51.012;5.648;2023-05-07T04:55:39;9.65;;;8.40;;
32633;SDS011;19043;51.012;5.648;2023-05-07T04:58:04;13.65;;;8.50;;
32633;SDS011;19043;51.012;5.648;2023-05-07T05:00:30;10.50;;;8.35;;
32633;SDS011;19043;51.012;5.648;2023-05-07T05:02:55;10.43;;;7.85;;
32633;SDS011;19043;51.012;5.648;2023-05-07T05:05:20;12.80;;;9.03;;
32633;SDS011;19043;51.012;5.648;2023-05-07T05:07:46;12.17;;;9.03;;
32633;SDS011;19043;51.012;5.648;2023-05-07T05:10:11;14.77;;;8.73;;
32633;SDS011;19043;51.012;5.648;2023-05-07T05:12:36;11.82;;;8.05;;
32633;SDS011;19043;51.012;5.648;2023-05-07T05:15:01;11.63;;;7.47;;
32633;SDS011;19043;51.012;5.648;2023-05-07T05:17:27;10.68;;;7.72;;
32633;SDS011;19043;51.012;5.648;2023-05-07T05:19:52;11.88;;;7.57;;
32633;SDS011;19043;51.012;5.648;2023-05-07T05:22:17;8.73;;;7.00;;
32633;SDS011;19043;51.012;5.648;2023-05-07T05:24:42;11.48;;;7.68;;
32633;SDS011;19043;51.012;5.648;2023-05-07T05:27:08;12.98;;;8.15;;
32633;SDS011;19043;51.012;5.648;2023-05-07T05:29:33;10.23;;;7.57;;
32633;SDS011;19043;51.012;5.648;2023-05-07T05:31:58;11.32;;;8.75;;
32633;SDS011;19043;51.012;5.648;2023-05-07T05:34:23;11.20;;;8.43;;
32633;SDS011;19043;51.012;5.648;2023-05-07T05:36:49;10.55;;;8.18;;
32633;SDS011;19043;51.012;5.648;2023-05-07T05:39:14;11.52;;;8.10;;
32633;SDS011;19043;51.012;5.648;2023-05-07T05:41:39;9.48;;;7.80;;
32633;SDS011;19043;51.012;5.648;2023-05-07T05:44:04;12.13;;;8.50;;
32633;SDS011;19043;51.012;5.648;2023-05-07T05:46:30;11.50;;;8.25;;
32633;SDS011;19043;51.012;5.648;2023-05-07T05:48:55;11.45;;;8.48;;
32633;SDS011;19043;51.012;5.648;2023-05-07T05:51:21;13.23;;;8.80;;
32633;SDS011;19043;51.012;5.648;2023-05-07T05:53:46;12.98;;;8.93;;
32633;SDS011;19043;51.012;5.648;2023-05-07T05:56:12;11.85;;;9.35;;
32633;SDS011;19043;51.012;5.648;2023-05-07T05:58:37;10.15;;;9.15;;
32633;SDS011;19043;51.012;5.648;2023-05-07T06:01:02;12.57;;;9.30;;
32633;SDS011;19043;51.012;5.648;2023-05-07T06:03:28;10.88;;;9.25;;
32633;SDS011;19043;51.012;5.648;2023-05-07T06:05:53;12.73;;;9.75;;
32633;SDS011;19043;51.012;5.648;2023-05-07T06:08:18;14.27;;;9.70;;
32633;SDS011;19043;51.012;5.648;2023-05-07T06:10:44;12.90;;;8.95;;
32633;SDS011;19043;51.012;5.648;2023-05-07T06:13:09;9.60;;;7.88;;
32633;SDS011;19043;51.012;5.648;2023-05-07T06:15:34;22.40;;;8.25;;
32633;SDS011;19043;51.012;5.648;2023-05-07T06:18:00;10.85;;;7.65;;
32633;SDS011;19043;51.012;5.648;2023-05-07T06:20:25;8.63;;;7.37;;
32633;SDS011;19043;51.012;5.648;2023-05-07T06:22:50;10.93;;;8.05;;
32633;SDS011;19043;51.012;5.648;2023-05-07T06:25:15;7.40;;;6.07;;
32633;SDS011;19043;51.012;5.648;2023-05-07T06:27:41;9.88;;;6.72;;
32633;SDS011;19043;51.012;5.648;2023-05-07T06:30:06;8.93;;;5.63;;
32633;SDS011;19043;51.012;5.648;2023-05-07T06:32:32;9.20;;;5.78;;
32633;SDS011;19043;51.012;5.648;2023-05-07T06:34:57;9.45;;;5.82;;
32633;SDS011;19043;51.012;5.648;2023-05-07T06:37:22;7.13;;;5.22;;
32633;SDS011;19043;51.012;5.648;2023-05-07T06:39:47;8.60;;;4.53;;
32633;SDS011;19043;51.012;5.648;2023-05-07T06:42:13;7.53;;;4.75;;
32633;SDS011;19043;51.012;5.648;2023-05-07T06:44:38;6.72;;;4.28;;
32633;SDS011;19043;51.012;5.648;2023-05-07T06:47:03;6.13;;;4.38;;
32633;SDS011;19043;51.012;5.648;2023-05-07T06:49:30;5.68;;;4.10;;
32633;SDS011;19043;51.012;5.648;2023-05-07T06:51:56;11.20;;;4.53;;
32633;SDS011;19043;51.012;5.648;2023-05-07T06:54:22;5.43;;;4.13;;
32633;SDS011;19043;51.012;5.648;2023-05-07T06:56:47;6.13;;;4.18;;
32633;SDS011;19043;51.012;5.648;2023-05-07T06:59:12;6.97;;;4.37;;
32633;SDS011;19043;51.012;5.648;2023-05-07T07:01:37;11.48;;;4.85;;
32633;SDS011;19043;51.012;5.648;2023-05-07T07:04:03;8.18;;;4.53;;
32633;SDS011;19043;51.012;5.648;2023-05-07T07:06:28;5.88;;;4.20;;
32633;SDS011;19043;51.012;5.648;2023-05-07T07:08:54;7.13;;;4.75;;
32633;SDS011;19043;51.012;5.648;2023-05-07T07:11:20;5.65;;;3.70;;
32633;SDS011;19043;51.012;5.648;2023-05-07T07:13:45;5.85;;;4.20;;
32633;SDS011;19043;51.012;5.648;2023-05-07T07:16:11;5.70;;;3.30;;
32633;SDS011;19043;51.012;5.648;2023-05-07T07:18:36;7.70;;;4.30;;
32633;SDS011;19043;51.012;5.648;2023-05-07T07:21:02;6.47;;;3.03;;
32633;SDS011;19043;51.012;5.648;2023-05-07T07:23:27;7.25;;;3.72;;
32633;SDS011;19043;51.012;5.648;2023-05-07T07:25:52;5.88;;;3.95;;
32633;SDS011;19043;51.012;5.648;2023-05-07T07:28:20;7.93;;;4.95;;
32633;SDS011;19043;51.012;5.648;2023-05-07T07:30:45;7.82;;;4.07;;
32633;SDS011;19043;51.012;5.648;2023-05-07T07:33:11;8.50;;;4.75;;
32633;SDS011;19043;51.012;5.648;2023-05-07T07:35:36;5.70;;;4.28;;
32633;SDS011;19043;51.012;5.648;2023-05-07T07:38:01;5.88;;;4.07;;
32633;SDS011;19043;51.012;5.648;2023-05-07T07:40:27;6.25;;;4.22;;
32633;SDS011;19043;51.012;5.648;2023-05-07T07:42:52;7.60;;;4.43;;
32633;SDS011;19043;51.012;5.648;2023-05-07T07:45:18;6.25;;;3.67;;
32633;SDS011;19043;51.012;5.648;2023-05-07T07:47:43;4.72;;;3.50;;
32633;SDS011;19043;51.012;5.648;2023-05-07T07:50:09;6.22;;;3.72;;
32633;SDS011;19043;51.012;5.648;2023-05-07T07:52:34;5.57;;;3.53;;
32633;SDS011;19043;51.012;5.648;2023-05-07T07:54:59;6.15;;;2.83;;
32633;SDS011;19043;51.012;5.648;2023-05-07T07:57:25;10.63;;;3.42;;
32633;SDS011;19043;51.012;5.648;2023-05-07T07:59:50;11.80;;;2.80;;
32633;SDS011;19043;51.012;5.648;2023-05-07T08:02:16;3.95;;;2.65;;
32633;SDS011;19043;51.012;5.648;2023-05-07T08:04:41;5.00;;;2.80;;
32633;SDS011;19043;51.012;5.648;2023-05-07T08:07:08;5.70;;;2.53;;
32633;SDS011;19043;51.012;5.648;2023-05-07T08:09:33;4.57;;;2.83;;
32633;SDS011;19043;51.012;5.648;2023-05-07T08:11:59;4.25;;;2.60;;
32633;SDS011;19043;51.012;5.648;2023-05-07T08:14:24;5.45;;;2.15;;
32633;SDS011;19043;51.012;5.648;2023-05-07T08:16:49;3.60;;;2.28;;
32633;SDS011;19043;51.012;5.648;2023-05-07T08:19:15;5.13;;;2.33;;
32633;SDS011;19043;51.012;5.648;2023-05-07T08:27:20;4.25;;;2.05;;
32633;SDS011;19043;51.012;5.648;2023-05-07T08:29:45;3.10;;;2.00;;
32633;SDS011;19043;51.012;5.648;2023-05-07T08:32:12;7.47;;;2.63;;
32633;SDS011;19043;51.012;5.648;2023-05-07T08:34:37;5.33;;;2.00;;
32633;SDS011;19043;51.012;5.648;2023-05-07T08:37:03;3.50;;;2.20;;
32633;SDS011;19043;51.012;5.648;2023-05-07T08:39:28;3.45;;;2.10;;
32633;SDS011;19043;51.012;5.648;2023-05-07T08:41:54;4.90;;;2.53;;
32633;SDS011;19043;51.012;5.648;2023-05-07T08:44:20;3.53;;;1.90;;
32633;SDS011;19043;51.012;5.648;2023-05-07T08:46:47;6.80;;;2.50;;
32633;SDS011;19043;51.012;5.648;2023-05-07T08:49:14;5.70;;;1.98;;
32633;SDS011;19043;51.012;5.648;2023-05-07T08:51:40;4.55;;;2.35;;
32633;SDS011;19043;51.012;5.648;2023-05-07T08:54:06;3.70;;;2.35;;
32633;SDS011;19043;51.012;5.648;2023-05-07T08:56:32;4.05;;;2.42;;
32633;SDS011;19043;51.012;5.648;2023-05-07T08:58:57;4.70;;;1.92;;
32633;SDS011;19043;51.012;5.648;2023-05-07T09:01:23;7.50;;;2.35;;
32633;SDS011;19043;51.012;5.648;2023-05-07T09:03:49;4.53;;;2.63;;
32633;SDS011;19043;51.012;5.648;2023-05-07T09:06:14;4.15;;;2.20;;
32633;SDS011;19043;51.012;5.648;2023-05-07T09:08:40;4.97;;;1.75;;
32633;SDS011;19043;51.012;5.648;2023-05-07T09:11:05;3.33;;;1.98;;
32633;SDS011;19043;51.012;5.648;2023-05-07T09:13:30;3.33;;;1.70;;
32633;SDS011;19043;51.012;5.648;2023-05-07T09:15:56;7.00;;;2.85;;
32633;SDS011;19043;51.012;5.648;2023-05-07T09:18:23;5.45;;;2.42;;
32633;SDS011;19043;51.012;5.648;2023-05-07T09:20:48;6.22;;;3.00;;
32633;SDS011;19043;51.012;5.648;2023-05-07T09:23:14;7.45;;;2.65;;
32633;SDS011;19043;51.012;5.648;2023-05-07T09:25:39;5.50;;;2.15;;
32633;SDS011;19043;51.012;5.648;2023-05-07T09:28:05;4.32;;;2.13;;
32633;SDS011;19043;51.012;5.648;2023-05-07T09:30:35;3.60;;;1.80;;
32633;SDS011;19043;51.012;5.648;2023-05-07T09:33:01;5.32;;;2.38;;
32633;SDS011;19043;51.012;5.648;2023-05-07T09:35:26;4.88;;;2.33;;
32633;SDS011;19043;51.012;5.648;2023-05-07T09:37:55;4.75;;;2.35;;
32633;SDS011;19043;51.012;5.648;2023-05-07T09:40:25;4.43;;;1.90;;
32633;SDS011;19043;51.012;5.648;2023-05-07T09:42:50;5.65;;;2.15;;
32633;SDS011;19043;51.012;5.648;2023-05-07T09:45:21;3.83;;;1.95;;
32633;SDS011;19043;51.012;5.648;2023-05-07T09:47:46;5.20;;;2.28;;
32633;SDS011;19043;51.012;5.648;2023-05-07T09:50:13;5.85;;;2.33;;
32633;SDS011;19043;51.012;5.648;2023-05-07T09:52:40;6.50;;;2.55;;
32633;SDS011;19043;51.012;5.648;2023-05-07T09:55:05;3.78;;;2.20;;
32633;SDS011;19043;51.012;5.648;2023-05-07T09:57:31;6.32;;;3.25;;
32633;SDS011;19043;51.012;5.648;2023-05-07T09:59:57;4.57;;;2.67;;
32633;SDS011;19043;51.012;5.648;2023-05-07T10:02:23;4.72;;;2.72;;
32633;SDS011;19043;51.012;5.648;2023-05-07T10:04:48;6.25;;;2.67;;
32633;SDS011;19043;51.012;5.648;2023-05-07T10:07:14;4.45;;;2.60;;
32633;SDS011;19043;51.012;5.648;2023-05-07T10:09:39;4.53;;;2.47;;
32633;SDS011;19043;51.012;5.648;2023-05-07T10:12:07;5.10;;;3.15;;
32633;SDS011;19043;51.012;5.648;2023-05-07T10:14:35;5.80;;;2.80;;
32633;SDS011;19043;51.012;5.648;2023-05-07T10:17:01;5.82;;;3.47;;
32633;SDS011;19043;51.012;5.648;2023-05-07T10:19:27;4.75;;;2.80;;
32633;SDS011;19043;51.012;5.648;2023-05-07T10:21:56;4.28;;;2.83;;
32633;SDS011;19043;51.012;5.648;2023-05-07T10:24:27;5.13;;;2.67;;
32633;SDS011;19043;51.012;5.648;2023-05-07T10:26:54;4.07;;;2.28;;
32633;SDS011;19043;51.012;5.648;2023-05-07T10:34:35;5.03;;;2.50;;
32633;SDS011;19043;51.012;5.648;2023-05-07T10:37:01;10.40;;;2.80;;
32633;SDS011;19043;51.012;5.648;2023-05-07T10:39:27;4.68;;;2.60;;
32633;SDS011;19043;51.012;5.648;2023-05-07T10:41:52;7.77;;;2.80;;
32633;SDS011;19043;51.012;5.648;2023-05-07T10:44:27;5.40;;;2.70;;
32633;SDS011;19043;51.012;5.648;2023-05-07T10:47:12;7.95;;;2.80;;
32633;SDS011;19043;51.012;5.648;2023-05-07T10:52:15;20.83;;;8.27;;
32633;SDS011;19043;51.012;5.648;2023-05-07T10:54:41;19.98;;;7.50;;
32633;SDS011;19043;51.012;5.648;2023-05-07T10:59:50;15.57;;;6.30;;
32633;SDS011;19043;51.012;5.648;2023-05-07T11:02:17;10.07;;;5.72;;
32633;SDS011;19043;51.012;5.648;2023-05-07T11:04:42;9.60;;;5.82;;
32633;SDS011;19043;51.012;5.648;2023-05-07T11:15:04;21.98;;;6.25;;
32633;SDS011;19043;51.012;5.648;2023-05-07T11:17:30;17.80;;;8.02;;
32633;SDS011;19043;51.012;5.648;2023-05-07T11:19:59;18.77;;;6.90;;
32633;SDS011;19043;51.012;5.648;2023-05-07T11:25:01;9.85;;;5.78;;
32633;SDS011;19043;51.012;5.648;2023-05-07T11:27:26;10.45;;;5.15;;
32633;SDS011;19043;51.012;5.648;2023-05-07T11:29:52;12.60;;;6.30;;
32633;SDS011;19043;51.012;5.648;2023-05-07T11:32:24;11.27;;;5.72;;
32633;SDS011;19043;51.012;5.648;2023-05-07T11:34:57;10.65;;;6.00;;
32633;SDS011;19043;51.012;5.648;2023-05-07T11:37:22;8.48;;;5.35;;
32633;SDS011;19043;51.012;5.648;2023-05-07T11:39:48;9.93;;;4.90;;
32633;SDS011;19043;51.012;5.648;2023-05-07T11:42:29;7.13;;;3.63;;
32633;SDS011;19043;51.012;5.648;2023-05-07T11:44:54;7.68;;;3.30;;
32633;SDS011;19043;51.012;5.648;2023-05-07T11:47:20;9.05;;;3.17;;
32633;SDS011;19043;51.012;5.648;2023-05-07T11:49:48;13.18;;;3.28;;
32633;SDS011;19043;51.012;5.648;2023-05-07T11:52:14;5.45;;;3.65;;
32633;SDS011;19043;51.012;5.648;2023-05-07T11:54:40;5.00;;;2.90;;
32633;SDS011;19043;51.012;5.648;2023-05-07T11:57:05;4.97;;;2.97;;
32633;SDS011;19043;51.012;5.648;2023-05-07T11:59:38;4.78;;;2.88;;
32633;SDS011;19043;51.012;5.648;2023-05-07T12:02:05;4.70;;;2.42;;
32633;SDS011;19043;51.012;5.648;2023-05-07T12:04:30;4.93;;;2.53;;
32633;SDS011;19043;51.012;5.648;2023-05-07T12:06:56;4.83;;;2.43;;
32633;SDS011;19043;51.012;5.648;2023-05-07T12:09:21;4.45;;;2.38;;
32633;SDS011;19043;51.012;5.648;2023-05-07T12:11:46;4.13;;;2.13;;
32633;SDS011;19043;51.012;5.648;2023-05-07T12:14:11;5.95;;;2.30;;
32633;SDS011;19043;51.012;5.648;2023-05-07T12:16:37;5.30;;;2.53;;
32633;SDS011;19043;51.012;5.648;2023-05-07T12:19:04;4.40;;;2.53;;
32633;SDS011;19043;51.012;5.648;2023-05-07T12:21:31;5.95;;;2.22;;
32633;SDS011;19043;51.012;5.648;2023-05-07T12:23:56;3.90;;;1.70;;
32633;SDS011;19043;51.012;5.648;2023-05-07T12:26:21;4.00;;;2.10;;
32633;SDS011;19043;51.012;5.648;2023-05-07T12:28:47;4.65;;;2.28;;
32633;SDS011;19043;51.012;5.648;2023-05-07T12:31:13;5.13;;;2.47;;
32633;SDS011;19043;51.012;5.648;2023-05-07T12:33:39;4.45;;;2.63;;
32633;SDS011;19043;51.012;5.648;2023-05-07T12:36:05;3.30;;;1.90;;
32633;SDS011;19043;51.012;5.648;2023-05-07T12:38:35;5.03;;;1.67;;
32633;SDS011;19043;51.012;5.648;2023-05-07T12:41:01;4.75;;;1.98;;
32633;SDS011;19043;51.012;5.648;2023-05-07T12:43:27;4.70;;;1.60;;
32633;SDS011;19043;51.012;5.648;2023-05-07T12:45:54;3.25;;;1.33;;
32633;SDS011;19043;51.012;5.648;2023-05-07T12:48:19;5.55;;;1.77;;
32633;SDS011;19043;51.012;5.648;2023-05-07T12:50:45;4.45;;;1.38;;
32633;SDS011;19043;51.012;5.648;2023-05-07T12:53:11;3.05;;;1.30;;
32633;SDS011;19043;51.012;5.648;2023-05-07T12:55:43;4.25;;;1.60;;
32633;SDS011;19043;51.012;5.648;2023-05-07T12:58:14;6.53;;;1.75;;
32633;SDS011;19043;51.012;5.648;2023-05-07T13:00:39;3.47;;;1.35;;
32633;SDS011;19043;51.012;5.648;2023-05-07T13:03:04;2.80;;;1.48;;
32633;SDS011;19043;51.012;5.648;2023-05-07T13:05:31;4.53;;;1.35;;
32633;SDS011;19043;51.012;5.648;2023-05-07T13:07:56;3.45;;;1.58;;
32633;SDS011;19043;51.012;5.648;2023-05-07T13:10:22;8.27;;;1.63;;
32633;SDS011;19043;51.012;5.648;2023-05-07T13:12:48;3.28;;;1.48;;
32633;SDS011;19043;51.012;5.648;2023-05-07T13:15:13;3.70;;;1.50;;
32633;SDS011;19043;51.012;5.648;2023-05-07T13:17:38;4.68;;;1.77;;
32633;SDS011;19043;51.012;5.648;2023-05-07T13:20:03;4.63;;;1.87;;
32633;SDS011;19043;51.012;5.648;2023-05-07T13:22:30;4.20;;;1.83;;
32633;SDS011;19043;51.012;5.648;2023-05-07T13:24:55;7.47;;;2.53;;
32633;SDS011;19043;51.012;5.648;2023-05-07T13:27:20;8.65;;;2.50;;
32633;SDS011;19043;51.012;5.648;2023-05-07T13:29:46;4.15;;;1.98;;
32633;SDS011;19043;51.012;5.648;2023-05-07T13:32:11;4.77;;;2.87;;
32633;SDS011;19043;51.012;5.648;2023-05-07T13:34:36;6.47;;;2.77;;
32633;SDS011;19043;51.012;5.648;2023-05-07T13:37:02;3.53;;;2.08;;
32633;SDS011;19043;51.012;5.648;2023-05-07T13:39:27;5.55;;;2.05;;
32633;SDS011;19043;51.012;5.648;2023-05-07T13:41:52;4.82;;;2.60;;
32633;SDS011;19043;51.012;5.648;2023-05-07T13:44:17;3.47;;;1.90;;
32633;SDS011;19043;51.012;5.648;2023-05-07T13:46:43;5.90;;;2.40;;
32633;SDS011;19043;51.012;5.648;2023-05-07T13:49:08;7.20;;;2.67;;
32633;SDS011;19043;51.012;5.648;2023-05-07T13:51:36;5.43;;;2.72;;
32633;SDS011;19043;51.012;5.648;2023-05-07T13:54:01;5.07;;;2.30;;
32633;SDS011;19043;51.012;5.648;2023-05-07T13:56:26;5.73;;;3.17;;
32633;SDS011;19043;51.012;5.648;2023-05-07T13:58:53;4.32;;;2.28;;
32633;SDS011;19043;51.012;5.648;2023-05-07T14:01:18;11.95;;;3.13;;
32633;SDS011;19043;51.012;5.648;2023-05-07T14:03:43;5.47;;;3.00;;
32633;SDS011;19043;51.012;5.648;2023-05-07T14:06:09;6.95;;;2.67;;
32633;SDS011;19043;51.012;5.648;2023-05-07T14:08:34;7.53;;;3.30;;
32633;SDS011;19043;51.012;5.648;2023-05-07T14:10:59;5.13;;;2.57;;
32633;SDS011;19043;51.012;5.648;2023-05-07T14:13:25;5.85;;;2.75;;
32633;SDS011;19043;51.012;5.648;2023-05-07T14:15:50;5.07;;;2.83;;
32633;SDS011;19043;51.012;5.648;2023-05-07T14:18:16;8.95;;;3.40;;
32633;SDS011;19043;51.012;5.648;2023-05-07T14:20:41;8.43;;;3.75;;
32633;SDS011;19043;51.012;5.648;2023-05-07T14:23:08;6.97;;;3.13;;
32633;SDS011;19043;51.012;5.648;2023-05-07T14:25:33;8.73;;;3.00;;
32633;SDS011;19043;51.012;5.648;2023-05-07T14:27:58;4.53;;;2.78;;
32633;SDS011;19043;51.012;5.648;2023-05-07T14:30:23;5.53;;;2.97;;
32633;SDS011;19043;51.012;5.648;2023-05-07T14:32:49;5.43;;;3.55;;
32633;SDS011;19043;51.012;5.648;2023-05-07T14:35:15;7.43;;;3.40;;
32633;SDS011;19043;51.012;5.648;2023-05-07T14:37:40;8.17;;;3.33;;
32633;SDS011;19043;51.012;5.648;2023-05-07T14:40:05;8.20;;;2.92;;
32633;SDS011;19043;51.012;5.648;2023-05-07T14:42:31;6.80;;;2.90;;
32633;SDS011;19043;51.012;5.648;2023-05-07T14:44:56;6.33;;;2.97;;
32633;SDS011;19043;51.012;5.648;2023-05-07T14:47:21;5.03;;;2.78;;
32633;SDS011;19043;51.012;5.648;2023-05-07T14:49:46;5.77;;;2.87;;
32633;SDS011;19043;51.012;5.648;2023-05-07T14:52:12;8.75;;;2.97;;
32633;SDS011;19043;51.012;5.648;2023-05-07T14:54:37;7.45;;;2.72;;
32633;SDS011;19043;51.012;5.648;2023-05-07T14:57:04;4.97;;;3.15;;
32633;SDS011;19043;51.012;5.648;2023-05-07T14:59:29;6.78;;;2.92;;
32633;SDS011;19043;51.012;5.648;2023-05-07T15:01:55;8.07;;;3.75;;